createdAt,value
2023-11-10T00:00:40.777Z,5.47
2023-11-10T00:03:24.462Z,6.80
2023-11-10T00:06:08.293Z,6.60
2023-11-10T00:08:51.990Z,5.88
2023-11-10T00:11:36.769Z,5.88
2023-11-10T00:14:27.414Z,5.20
2023-11-10T00:17:14.798Z,5.25
2023-11-10T00:19:58.543Z,6.30
2023-11-10T00:22:42.816Z,5.40
2023-11-10T00:25:27.004Z,6.72
2023-11-10T00:28:12.357Z,6.45
2023-11-10T00:30:56.092Z,5.80
2023-11-10T00:33:39.704Z,5.97
2023-11-10T00:36:24.094Z,6.93
2023-11-10T00:39:08.263Z,6.03
2023-11-10T00:41:51.690Z,6.43
2023-11-10T00:44:36.932Z,6.43
2023-11-10T00:47:20.165Z,5.63
2023-11-10T00:50:04.395Z,5.95
2023-11-10T00:52:47.733Z,6.18
2023-11-10T00:55:31.322Z,6.65
2023-11-10T00:58:14.677Z,6.20
2023-11-10T01:00:59.433Z,6.78
2023-11-10T01:03:44.200Z,5.95
2023-11-10T01:06:27.611Z,5.53
2023-11-10T01:09:11.003Z,7.28
2023-11-10T01:11:54.646Z,6.25
2023-11-10T01:14:38.738Z,6.40
2023-11-10T01:17:23.543Z,6.00
2023-11-10T01:20:09.177Z,6.10
2023-11-10T01:22:52.728Z,6.20
2023-11-10T01:25:36.685Z,7.22
2023-11-10T01:28:21.559Z,6.18
2023-11-10T01:31:05.267Z,6.40
2023-11-10T01:33:50.653Z,6.57
2023-11-10T01:36:34.177Z,6.25
2023-11-10T01:39:17.536Z,6.50
2023-11-10T01:42:00.911Z,6.38
2023-11-10T01:44:45.760Z,7.22
2023-11-10T01:47:29.500Z,6.32
2023-11-10T01:50:14.516Z,7.00
2023-11-10T01:52:59.578Z,5.72
2023-11-10T01:55:44.912Z,6.63
2023-11-10T01:58:28.759Z,6.28
2023-11-10T02:01:12.754Z,6.20
2023-11-10T02:03:56.321Z,6.88
2023-11-10T02:06:43.392Z,7.15
2023-11-10T02:09:27.231Z,5.65
2023-11-10T02:12:11.131Z,6.30
2023-11-10T02:14:54.578Z,6.75
2023-11-10T02:17:38.606Z,7.07
2023-11-10T02:20:24.617Z,7.15
2023-11-10T02:23:10.236Z,6.28
2023-11-10T02:25:55.267Z,7.20
2023-11-10T02:28:41.301Z,7.00
2023-11-10T02:31:24.905Z,6.45
2023-11-10T02:34:09.333Z,7.03
2023-11-10T02:36:52.785Z,6.00
2023-11-10T02:39:37.411Z,6.63
2023-11-10T02:42:22.134Z,6.45
2023-11-10T02:45:07.367Z,6.05
2023-11-10T02:47:50.822Z,7.05
2023-11-10T02:50:34.562Z,6.00
2023-11-10T02:53:18.333Z,6.82
2023-11-10T02:56:02.640Z,6.28
2023-11-10T02:58:47.384Z,6.32
2023-11-10T03:01:31.372Z,7.25
2023-11-10T03:04:14.816Z,6.22
2023-11-10T03:06:58.853Z,6.90
2023-11-10T03:09:42.615Z,7.07
2023-11-10T03:12:26.268Z,6.97
2023-11-10T03:15:12.485Z,7.13
2023-11-10T03:17:55.936Z,6.47
2023-11-10T03:20:41.312Z,7.22
2023-11-10T03:23:24.913Z,6.32
2023-11-10T03:26:08.269Z,6.93
2023-11-10T03:28:51.634Z,8.38
2023-11-10T03:31:38.840Z,6.70
2023-11-10T03:34:25.020Z,6.82
2023-11-10T03:37:09.238Z,7.63
2023-11-10T03:39:52.791Z,6.85
2023-11-10T03:42:37.680Z,7.10
2023-11-10T03:45:21.068Z,6.55
2023-11-10T03:48:06.363Z,7.35
2023-11-10T03:50:49.786Z,6.97
2023-11-10T03:53:33.196Z,7.55
2023-11-10T03:56:16.739Z,7.60
2023-11-10T03:59:00.188Z,7.95
2023-11-10T04:01:44.695Z,7.88
2023-11-10T04:04:29.512Z,7.57
2023-11-10T04:07:14.256Z,7.63
2023-11-10T04:09:58.031Z,7.10
2023-11-10T04:12:41.582Z,7.50
2023-11-10T04:15:25.615Z,7.13
2023-11-10T04:18:09.267Z,7.05
2023-11-10T04:20:54.213Z,7.53
2023-11-10T04:23:37.545Z,7.50
2023-11-10T04:26:21.994Z,8.50
2023-11-10T04:29:06.906Z,7.50
2023-11-10T04:31:50.433Z,7.45
2023-11-10T04:34:33.905Z,8.45
2023-11-10T04:37:19.581Z,7.78
2023-11-10T04:40:02.921Z,8.55
2023-11-10T04:42:47.130Z,7.75
2023-11-10T04:45:30.568Z,8.55
2023-11-10T04:48:14.137Z,8.77
2023-11-10T04:50:58.242Z,9.07
2023-11-10T04:53:44.423Z,8.52
2023-11-10T04:56:27.710Z,7.22
2023-11-10T04:59:11.090Z,8.38
2023-11-10T05:01:55.251Z,9.77
2023-11-10T05:04:40.724Z,8.63
2023-11-10T05:07:23.998Z,8.45
2023-11-10T05:10:09.556Z,7.82
2023-11-10T05:12:53.725Z,7.88
2023-11-10T05:15:39.414Z,8.05
2023-11-10T05:21:14.334Z,8.30
2023-11-10T05:23:57.919Z,8.60
2023-11-10T05:26:43.686Z,9.65
2023-11-10T05:29:27.330Z,8.57
2023-11-10T05:32:11.332Z,8.88
2023-11-10T05:34:55.560Z,8.40
2023-11-10T05:37:39.117Z,9.18
2023-11-10T05:40:22.809Z,9.73
2023-11-10T05:43:08.008Z,9.30
2023-11-10T05:45:51.393Z,10.52
2023-11-10T05:48:35.038Z,10.00
2023-11-10T05:51:18.815Z,9.73
2023-11-10T05:54:02.273Z,10.35
2023-11-10T05:56:47.126Z,12.02
2023-11-10T05:59:32.555Z,10.30
2023-11-10T06:02:18.879Z,10.10
2023-11-10T06:05:05.916Z,10.25
2023-11-10T06:07:52.072Z,8.98
2023-11-10T06:10:35.424Z,10.40
2023-11-10T06:13:19.392Z,9.30
2023-11-10T06:16:08.248Z,8.68
2023-11-10T06:18:51.797Z,9.45
2023-11-10T06:21:36.099Z,9.02
2023-11-10T06:24:21.486Z,9.00
2023-11-10T06:27:05.774Z,9.45
2023-11-10T06:29:49.335Z,9.25
2023-11-10T06:32:34.618Z,9.23
2023-11-10T06:35:18.243Z,10.38
2023-11-10T06:38:02.666Z,8.50
2023-11-10T06:40:46.257Z,8.82
2023-11-10T06:43:29.667Z,9.48
2023-11-10T06:46:13.331Z,9.20
2023-11-10T06:48:58.674Z,10.07
2023-11-10T06:51:42.699Z,9.48
2023-11-10T06:54:26.067Z,9.65
2023-11-10T06:57:10.641Z,9.57
2023-11-10T06:59:54.256Z,10.38
2023-11-10T07:02:37.861Z,10.15
2023-11-10T07:05:22.854Z,8.80
2023-11-10T07:08:11.005Z,10.18
2023-11-10T07:11:02.295Z,9.82
2023-11-10T07:13:47.261Z,9.98
2023-11-10T07:16:30.691Z,9.23
2023-11-10T07:19:14.509Z,10.02
2023-11-10T07:21:59.584Z,8.65
2023-11-10T07:24:43.087Z,9.40
2023-11-10T07:27:26.670Z,8.85
2023-11-10T07:30:10.916Z,8.90
2023-11-10T07:32:54.467Z,9.27
2023-11-10T07:35:38.302Z,9.27
2023-11-10T07:38:23.126Z,9.60
2023-11-10T07:41:06.601Z,8.85
2023-11-10T07:43:49.930Z,9.23
2023-11-10T07:46:34.483Z,10.35
2023-11-10T07:49:17.804Z,11.20
2023-11-10T07:52:01.150Z,9.40
2023-11-10T07:54:46.443Z,9.02
2023-11-10T07:57:42.675Z,9.57
2023-11-10T08:00:26.319Z,8.75
2023-11-10T08:03:09.798Z,9.07
2023-11-10T08:05:54.453Z,7.90
2023-11-10T08:08:38.339Z,8.25
2023-11-10T08:11:23.291Z,7.53
2023-11-10T08:14:06.677Z,8.15
2023-11-10T08:16:50.453Z,8.55
2023-11-10T08:19:34.321Z,8.95
2023-11-10T08:22:17.622Z,7.38
2023-11-10T08:25:04.614Z,7.55
2023-11-10T08:27:50.412Z,8.45
2023-11-10T08:30:34.296Z,8.73
2023-11-10T08:33:17.976Z,7.72
2023-11-10T08:36:01.353Z,11.10
2023-11-10T08:38:44.669Z,8.18
2023-11-10T08:41:27.987Z,7.60
2023-11-10T08:44:12.705Z,8.25
2023-11-10T08:46:56.480Z,7.30
2023-11-10T08:49:39.886Z,6.43
2023-11-10T08:52:23.253Z,5.97
2023-11-10T08:55:06.865Z,6.72
2023-11-10T08:57:50.717Z,5.47
2023-11-10T09:00:35.898Z,6.40
2023-11-10T09:03:20.534Z,7.00
2023-11-10T09:06:03.834Z,5.43
2023-11-10T09:08:47.096Z,6.43
2023-11-10T09:11:30.450Z,5.40
2023-11-10T09:14:15.003Z,6.13
2023-11-10T09:17:00.469Z,6.75
2023-11-10T09:19:43.794Z,6.80
2023-11-10T09:22:27.679Z,6.50
2023-11-10T09:25:17.422Z,6.10
2023-11-10T09:30:46.344Z,5.28
2023-11-10T09:33:31.258Z,8.43
2023-11-10T09:36:15.116Z,7.85
2023-11-10T09:38:58.508Z,6.10
2023-11-10T09:41:45.767Z,5.35
2023-11-10T09:44:30.225Z,5.22
2023-11-10T09:47:14.055Z,6.95
2023-11-10T09:50:00.055Z,5.75
2023-11-10T09:52:44.920Z,5.60
2023-11-10T09:55:29.257Z,5.70
2023-11-10T09:58:13.913Z,5.40
2023-11-10T10:00:59.203Z,7.18
2023-11-10T10:03:42.801Z,5.30
2023-11-10T10:06:28.128Z,5.72
2023-11-10T10:09:12.605Z,5.70
2023-11-10T10:11:57.870Z,6.35
2023-11-10T10:14:42.298Z,5.57
2023-11-10T10:17:38.034Z,5.28
2023-11-10T10:20:23.606Z,5.72
2023-11-10T10:23:08.758Z,5.70
2023-11-10T10:25:52.148Z,5.95
2023-11-10T10:28:35.506Z,5.40
2023-11-10T10:31:19.199Z,5.78
2023-11-10T10:34:05.629Z,5.35
2023-11-10T10:36:49.998Z,7.68
2023-11-10T10:39:35.998Z,5.72
2023-11-10T10:42:21.045Z,5.88
2023-11-10T10:45:08.120Z,5.95
2023-11-10T10:47:52.606Z,6.95
2023-11-10T10:50:39.055Z,6.05
2023-11-10T10:53:23.496Z,6.45
2023-11-10T10:56:12.641Z,5.57
2023-11-10T10:58:56.418Z,5.40
2023-11-10T11:01:41.572Z,5.63
2023-11-10T11:04:32.321Z,5.22
2023-11-10T11:07:33.193Z,4.88
2023-11-10T11:10:45.778Z,4.90
2023-11-10T11:14:02.252Z,6.28
2023-11-10T11:17:10.847Z,4.53
2023-11-10T11:19:55.126Z,4.80
2023-11-10T11:22:41.071Z,6.40
2023-11-10T11:25:24.915Z,5.03
2023-11-10T11:28:09.244Z,5.43
2023-11-10T11:31:09.635Z,5.30
2023-11-10T11:33:54.108Z,5.95
2023-11-10T11:36:39.442Z,4.72
2023-11-10T11:39:27.486Z,4.05
2023-11-10T11:42:11.038Z,4.97
2023-11-10T11:44:58.786Z,4.22
2023-11-10T11:47:44.414Z,5.30
2023-11-10T11:50:30.676Z,5.20
2023-11-10T11:53:14.065Z,5.65
2023-11-10T11:55:58.863Z,4.90
2023-11-10T11:58:43.687Z,4.65
2023-11-10T12:01:27.663Z,4.68
2023-11-10T12:04:12.820Z,4.80
2023-11-10T12:06:56.488Z,4.78
2023-11-10T12:09:40.117Z,5.30
2023-11-10T12:12:25.342Z,4.68
2023-11-10T12:15:11.759Z,4.60
2023-11-10T12:17:55.514Z,6.20
2023-11-10T12:20:41.307Z,5.70
2023-11-10T12:23:24.965Z,5.18
2023-11-10T12:26:09.009Z,5.40
2023-11-10T12:28:53.546Z,5.43
2023-11-10T12:31:37.788Z,9.23
2023-11-10T12:34:21.993Z,6.53
2023-11-10T12:37:08.387Z,6.45
2023-11-10T12:39:51.793Z,6.68
2023-11-10T12:42:35.656Z,6.93
2023-11-10T12:45:20.915Z,6.88
2023-11-10T12:48:14.362Z,7.63
2023-11-10T12:50:58.308Z,6.70
2023-11-10T12:53:44.715Z,6.18
2023-11-10T12:56:28.414Z,6.05
2023-11-10T12:59:11.729Z,7.38
2023-11-10T13:01:56.186Z,6.18
2023-11-10T13:04:40.395Z,6.78
2023-11-10T13:07:24.811Z,7.38
2023-11-10T13:10:12.398Z,8.07
2023-11-10T13:12:55.941Z,6.22
2023-11-10T13:15:39.673Z,6.75
2023-11-10T13:18:23.865Z,6.20
2023-11-10T13:21:08.613Z,6.40
2023-11-10T13:23:56.896Z,7.20
2023-11-10T13:26:45.123Z,7.47
2023-11-10T13:29:28.583Z,7.03
2023-11-10T13:32:14.460Z,7.22
2023-11-10T13:35:01.668Z,7.28
2023-11-10T13:37:45.403Z,7.72
2023-11-10T13:40:28.851Z,7.10
2023-11-10T13:43:13.700Z,8.05
2023-11-10T13:45:57.349Z,7.70
2023-11-10T13:48:41.945Z,7.68
2023-11-10T13:51:25.396Z,6.70
2023-11-10T13:54:08.827Z,7.25
2023-11-10T13:56:52.248Z,8.73
2023-11-10T13:59:40.775Z,8.15
2023-11-10T14:02:24.494Z,8.13
2023-11-10T14:05:09.188Z,8.02
2023-11-10T14:07:52.564Z,7.88
2023-11-10T14:10:35.939Z,9.30
2023-11-10T14:13:19.255Z,7.78
2023-11-10T14:16:06.371Z,7.88
2023-11-10T14:18:50.068Z,7.45
2023-11-10T14:21:33.636Z,6.93
2023-11-10T14:24:17.235Z,6.90
2023-11-10T14:27:00.653Z,6.88
2023-11-10T14:29:44.011Z,7.55
2023-11-10T14:32:28.988Z,6.80
2023-11-10T14:35:13.723Z,10.57
2023-11-10T14:38:00.279Z,8.50
2023-11-10T14:40:44.212Z,9.20
2023-11-10T14:43:27.575Z,8.68
2023-11-10T14:46:11.141Z,8.68
2023-11-10T14:48:56.245Z,8.57
2023-11-10T14:51:46.622Z,9.07
2023-11-10T14:54:29.954Z,7.80
2023-11-10T14:57:14.800Z,6.78
2023-11-10T14:59:58.379Z,6.85
2023-11-10T15:02:44.042Z,6.82
2023-11-10T15:05:29.202Z,6.00
2023-11-10T15:08:14.275Z,6.50
2023-11-10T15:10:57.647Z,6.38
2023-11-10T15:13:41.178Z,7.25
2023-11-10T15:16:26.353Z,6.13
2023-11-10T15:19:09.844Z,7.28
2023-11-10T15:21:54.565Z,7.32
2023-11-10T15:24:38.588Z,7.95
2023-11-10T15:27:21.902Z,8.25
2023-11-10T15:30:06.712Z,8.85
2023-11-10T15:32:50.118Z,8.02
2023-11-10T15:35:34.179Z,8.23
2023-11-10T15:38:19.892Z,8.27
2023-11-10T15:41:03.326Z,8.18
2023-11-10T15:43:47.303Z,8.20
2023-11-10T15:46:31.048Z,7.70
2023-11-10T15:52:20.593Z,8.27
2023-11-10T15:55:09.658Z,9.90
2023-11-10T15:57:53.275Z,8.90
2023-11-10T16:00:36.760Z,8.35
2023-11-10T16:03:21.319Z,9.40
2023-11-10T16:06:08.597Z,9.23
2023-11-10T16:11:56.489Z,10.52
2023-11-10T16:14:39.920Z,9.77
2023-11-10T16:17:23.248Z,10.38
2023-11-10T16:20:08.869Z,9.63
2023-11-10T16:22:52.201Z,9.82
2023-11-10T16:25:36.216Z,9.07
2023-11-10T16:28:21.003Z,9.65
2023-11-10T16:31:04.742Z,10.65
2023-11-10T16:33:48.489Z,8.65
2023-11-10T16:36:32.441Z,8.20
2023-11-10T16:39:17.128Z,10.30
2023-11-10T16:42:00.401Z,16.42
2023-11-10T16:44:45.195Z,10.60
2023-11-10T16:47:31.278Z,9.70
2023-11-10T16:50:14.713Z,9.70
2023-11-10T16:52:58.122Z,10.27
2023-11-10T16:55:41.695Z,10.40
2023-11-10T16:58:25.418Z,10.15
2023-11-10T17:01:10.711Z,11.50
2023-11-10T17:03:54.451Z,10.85
2023-11-10T17:06:38.199Z,10.63
2023-11-10T17:09:22.174Z,11.18
2023-11-10T17:12:05.858Z,12.82
2023-11-10T17:14:50.740Z,11.77
2023-11-10T17:17:35.705Z,11.80
2023-11-10T17:20:19.333Z,11.65
2023-11-10T17:23:02.856Z,12.20
2023-11-10T17:25:48.223Z,12.05
2023-11-10T17:28:32.848Z,12.40
2023-11-10T17:31:16.177Z,12.50
2023-11-10T17:34:01.998Z,13.35
2023-11-10T17:36:45.498Z,12.68
2023-11-10T17:39:28.942Z,14.40
2023-11-10T17:42:12.323Z,14.48
2023-11-10T17:44:55.756Z,12.95
2023-11-10T17:47:41.828Z,13.45
2023-11-10T17:50:27.164Z,14.50
2023-11-10T17:53:11.145Z,14.63
2023-11-10T17:55:55.372Z,14.75
2023-11-10T17:58:39.073Z,17.88
2023-11-10T18:01:23.529Z,19.52
2023-11-10T18:04:08.780Z,16.45
2023-11-10T18:06:54.712Z,17.77
2023-11-10T18:09:38.339Z,17.08
2023-11-10T18:12:22.865Z,18.05
2023-11-10T18:15:07.954Z,16.85
2023-11-10T18:17:51.955Z,16.55
2023-11-10T18:20:35.938Z,16.05
2023-11-10T18:23:21.015Z,16.52
2023-11-10T18:26:05.120Z,15.20
2023-11-10T18:28:48.523Z,15.63
2023-11-10T18:31:32.057Z,15.77
2023-11-10T18:34:15.473Z,16.63
2023-11-10T18:37:00.145Z,15.45
2023-11-10T18:39:47.037Z,16.05
2023-11-10T18:42:30.403Z,15.55
2023-11-10T18:45:14.308Z,15.75
2023-11-10T18:47:57.751Z,19.13
2023-11-10T18:50:41.224Z,18.15
2023-11-10T18:53:25.090Z,16.88
2023-11-10T18:56:11.210Z,16.13
2023-11-10T18:58:56.036Z,17.50
2023-11-10T19:01:40.092Z,16.88
2023-11-10T19:04:23.873Z,18.70
2023-11-10T19:07:08.060Z,18.65
2023-11-10T19:09:53.117Z,17.65
2023-11-10T19:12:38.091Z,18.35
2023-11-10T19:15:22.086Z,17.65
2023-11-10T19:18:07.903Z,20.17
2023-11-10T19:20:51.812Z,43.15
2023-11-10T19:23:35.399Z,25.85
2023-11-10T19:26:19.396Z,23.42
2023-11-10T19:29:04.351Z,18.30
2023-11-10T19:31:49.608Z,20.33
2023-11-10T19:34:32.941Z,24.42
2023-11-10T19:37:16.496Z,21.98
2023-11-10T19:39:59.918Z,20.25
2023-11-10T19:42:44.006Z,19.00
2023-11-10T19:45:29.046Z,17.27
2023-11-10T19:48:12.569Z,19.52
2023-11-10T19:50:56.345Z,19.88
2023-11-10T19:53:39.931Z,19.67
2023-11-10T19:56:23.635Z,18.27
2023-11-10T20:01:56.524Z,18.73
2023-11-10T20:04:40.094Z,27.02
2023-11-10T20:07:23.499Z,20.88
2023-11-10T20:10:10.698Z,19.65
2023-11-10T20:12:54.312Z,22.02
2023-11-10T20:15:38.189Z,19.80
2023-11-10T20:18:23.070Z,19.85
2023-11-10T20:21:06.808Z,18.55
2023-11-10T20:23:50.465Z,20.10
2023-11-10T20:26:33.798Z,20.70
2023-11-10T20:29:17.133Z,20.73
2023-11-10T20:32:00.416Z,22.85
2023-11-10T20:34:45.194Z,20.23
2023-11-10T20:37:30.571Z,20.42
2023-11-10T20:40:16.346Z,22.25
2023-11-10T20:43:00.204Z,22.40
2023-11-10T20:45:43.937Z,24.65
2023-11-10T20:48:31.312Z,22.98
2023-11-10T20:51:22.631Z,22.85
2023-11-10T20:54:07.259Z,23.75
2023-11-10T20:56:50.870Z,25.05
2023-11-10T20:59:34.465Z,35.13
2023-11-10T21:02:18.787Z,26.10
2023-11-10T21:05:04.662Z,23.73
2023-11-10T21:07:49.582Z,24.73
2023-11-10T21:10:33.544Z,24.75
2023-11-10T21:13:18.298Z,23.60
2023-11-10T21:16:01.956Z,23.20
2023-11-10T21:18:45.416Z,21.88
2023-11-10T21:21:29.098Z,19.52
2023-11-10T21:24:14.203Z,20.27
2023-11-10T21:26:57.732Z,19.30
2023-11-10T21:29:41.278Z,19.23
2023-11-10T21:32:25.128Z,16.25
2023-11-10T21:35:10.181Z,18.48
2023-11-10T21:37:55.335Z,20.38
2023-11-10T21:40:42.025Z,19.05
2023-11-10T21:43:25.591Z,17.10
2023-11-10T21:46:09.253Z,13.90
2023-11-10T21:48:53.553Z,11.82
2023-11-10T21:51:37.808Z,11.07
2023-11-10T21:54:21.440Z,12.13
2023-11-10T21:57:07.236Z,11.18
2023-11-10T21:59:50.527Z,9.15
2023-11-10T22:02:34.461Z,7.63
2023-11-10T22:05:19.067Z,6.65
2023-11-10T22:08:03.248Z,7.70
2023-11-10T22:10:46.702Z,6.75
2023-11-10T22:13:31.997Z,7.65
2023-11-10T22:16:17.174Z,7.75
2023-11-10T22:19:01.140Z,7.85
2023-11-10T22:21:48.171Z,11.13
2023-11-10T22:24:32.556Z,8.52
2023-11-10T22:27:15.981Z,7.20
2023-11-10T22:30:01.835Z,6.30
2023-11-10T22:32:45.211Z,6.43
2023-11-10T22:35:28.758Z,5.85
2023-11-10T22:38:12.000Z,7.68
2023-11-10T22:40:55.306Z,8.75
2023-11-10T22:43:38.849Z,10.65
2023-11-10T22:46:23.657Z,12.98
2023-11-10T22:49:07.835Z,14.85
2023-11-10T22:51:51.368Z,15.10
2023-11-10T22:54:35.236Z,14.32
2023-11-10T22:57:18.853Z,15.68
2023-11-10T23:00:02.799Z,15.63
2023-11-10T23:02:48.392Z,14.65
2023-11-10T23:05:32.172Z,14.23
2023-11-10T23:08:15.623Z,14.52
2023-11-10T23:10:59.673Z,14.85
2023-11-10T23:13:45.302Z,14.40
2023-11-10T23:16:30.186Z,13.93
2023-11-10T23:19:15.509Z,14.27
2023-11-10T23:21:59.392Z,14.02
2023-11-10T23:24:42.761Z,15.10
2023-11-10T23:27:26.139Z,14.32
2023-11-10T23:30:11.900Z,15.02
2023-11-10T23:32:55.676Z,13.93
2023-11-10T23:35:47.434Z,14.20
2023-11-10T23:38:34.077Z,14.70
2023-11-10T23:41:17.539Z,13.45
2023-11-10T23:44:01.181Z,14.43
2023-11-10T23:46:44.572Z,13.43
2023-11-10T23:49:28.115Z,13.18
2023-11-10T23:52:14.115Z,12.82
2023-11-10T23:54:57.454Z,12.07
2023-11-10T23:57:41.087Z,12.20
